createdAt,value
2023-03-16T00:01:08.726Z,76.00
2023-03-16T00:03:36.774Z,76.32
2023-03-16T00:06:03.981Z,76.33
2023-03-16T00:08:30.886Z,76.49
2023-03-16T00:10:57.294Z,76.53
2023-03-16T00:13:25.000Z,75.91
2023-03-16T00:15:54.245Z,76.17
2023-03-16T00:18:22.447Z,76.25
2023-03-16T00:20:53.672Z,76.77
2023-03-16T00:23:20.125Z,76.44
2023-03-16T00:25:46.650Z,76.62
2023-03-16T00:28:13.955Z,77.36
2023-03-16T00:30:40.764Z,77.24
2023-03-16T00:33:07.267Z,77.64
2023-03-16T00:35:34.916Z,77.63
2023-03-16T00:38:01.478Z,78.05
2023-03-16T00:40:28.144Z,77.89
2023-03-16T00:42:55.088Z,78.47
2023-03-16T00:45:21.650Z,78.30
2023-03-16T00:47:48.173Z,78.28
2023-03-16T00:50:15.648Z,78.49
2023-03-16T00:52:42.341Z,78.57
2023-03-16T00:55:09.580Z,78.54
2023-03-16T00:57:36.083Z,78.71
2023-03-16T01:00:12.636Z,78.69
2023-03-16T01:02:39.149Z,79.21
2023-03-16T01:05:06.303Z,79.24
2023-03-16T01:07:32.702Z,79.28
2023-03-16T01:09:59.159Z,79.25
2023-03-16T01:12:25.611Z,78.95
2023-03-16T01:14:52.359Z,79.44
2023-03-16T01:17:19.050Z,79.49
2023-03-16T01:19:46.653Z,79.47
2023-03-16T01:22:13.695Z,79.43
2023-03-16T01:24:41.076Z,80.08
2023-03-16T01:27:08.941Z,80.45
2023-03-16T01:29:35.533Z,80.24
2023-03-16T01:32:04.212Z,80.97
2023-03-16T01:34:31.982Z,80.01
2023-03-16T01:36:58.915Z,80.79
2023-03-16T01:39:25.534Z,81.24
2023-03-16T01:41:52.031Z,80.98
2023-03-16T01:44:23.021Z,81.19
2023-03-16T01:46:49.992Z,81.37
2023-03-16T01:49:30.334Z,81.80
2023-03-16T01:52:05.500Z,81.45
2023-03-16T01:54:40.897Z,81.65
2023-03-16T01:57:17.722Z,81.85
2023-03-16T01:59:56.752Z,81.49
2023-03-16T02:02:27.337Z,82.36
2023-03-16T02:05:17.199Z,82.30
2023-03-16T02:07:47.862Z,82.28
2023-03-16T02:10:16.910Z,82.29
2023-03-16T02:12:44.114Z,82.60
2023-03-16T02:15:13.437Z,82.51
2023-03-16T02:17:43.004Z,82.23
2023-03-16T02:20:24.560Z,82.60
2023-03-16T02:22:55.411Z,82.42
2023-03-16T02:25:35.474Z,82.04
2023-03-16T02:28:23.705Z,82.70
2023-03-16T02:30:51.258Z,82.99
2023-03-16T02:33:19.490Z,83.04
2023-03-16T02:35:46.020Z,82.67
2023-03-16T02:38:12.567Z,82.87
2023-03-16T02:40:39.258Z,83.42
2023-03-16T02:43:20.641Z,83.44
2023-03-16T02:45:59.512Z,83.42
2023-03-16T02:48:33.617Z,83.58
2023-03-16T02:51:00.120Z,84.39
2023-03-16T02:53:26.547Z,84.43
2023-03-16T02:55:53.198Z,85.08
2023-03-16T02:58:19.776Z,84.99
2023-03-16T03:00:46.450Z,85.58
2023-03-16T03:03:14.128Z,84.98
2023-03-16T03:05:40.876Z,85.43
2023-03-16T03:08:07.589Z,85.53
2023-03-16T03:10:34.053Z,85.71
2023-03-16T03:13:00.784Z,85.57
2023-03-16T03:15:27.429Z,85.58
2023-03-16T03:17:53.983Z,85.72
2023-03-16T03:20:21.592Z,85.10
2023-03-16T03:22:50.135Z,85.75
2023-03-16T03:25:18.277Z,85.86
2023-03-16T03:27:46.553Z,85.92
2023-03-16T03:30:16.446Z,86.26
2023-03-16T03:32:44.149Z,85.96
2023-03-16T03:35:12.605Z,85.92
2023-03-16T03:37:44.239Z,86.50
2023-03-16T03:40:13.356Z,86.73
2023-03-16T03:42:41.002Z,86.30
2023-03-16T03:45:08.529Z,86.54
2023-03-16T03:47:34.995Z,87.15
2023-03-16T03:50:01.598Z,86.73
2023-03-16T03:52:29.038Z,87.30
2023-03-16T03:54:55.518Z,87.73
2023-03-16T03:57:22.077Z,88.00
2023-03-16T03:59:48.583Z,88.33
2023-03-16T04:02:15.622Z,88.14
2023-03-16T04:04:44.342Z,88.82
2023-03-16T04:07:11.277Z,89.27
2023-03-16T04:09:37.764Z,89.11
2023-03-16T04:12:05.969Z,89.24
2023-03-16T04:14:33.049Z,90.25
2023-03-16T04:16:59.691Z,90.20
2023-03-16T04:19:26.406Z,90.50
2023-03-16T04:21:53.328Z,90.47
2023-03-16T04:24:19.950Z,90.17
2023-03-16T04:26:46.539Z,90.57
2023-03-16T04:29:14.513Z,90.84
2023-03-16T04:31:42.419Z,90.91
2023-03-16T04:34:09.530Z,90.90
2023-03-16T04:36:36.257Z,91.18
2023-03-16T04:39:04.641Z,90.84
2023-03-16T04:41:31.912Z,91.55
2023-03-16T04:43:58.938Z,91.64
2023-03-16T04:46:26.829Z,91.75
2023-03-16T04:48:53.828Z,91.62
2023-03-16T04:51:21.563Z,92.12
2023-03-16T04:53:48.089Z,91.57
2023-03-16T04:56:19.803Z,91.90
2023-03-16T04:58:47.990Z,91.64
2023-03-16T05:01:15.363Z,91.69
2023-03-16T05:03:42.824Z,91.27
2023-03-16T05:06:10.171Z,91.09
2023-03-16T05:08:36.798Z,91.42
2023-03-16T05:11:03.342Z,91.03
2023-03-16T05:13:29.823Z,90.72
2023-03-16T05:15:56.383Z,90.82
2023-03-16T05:18:23.372Z,90.61
2023-03-16T05:20:51.764Z,90.35
2023-03-16T05:23:18.215Z,90.74
2023-03-16T05:25:47.246Z,90.91
2023-03-16T05:28:14.959Z,90.59
2023-03-16T05:30:42.434Z,90.85
2023-03-16T05:33:09.463Z,91.14
2023-03-16T05:35:36.470Z,91.43
2023-03-16T05:38:03.121Z,91.18
2023-03-16T05:40:29.997Z,90.97
2023-03-16T05:42:57.600Z,91.04
2023-03-16T05:45:24.485Z,91.08
2023-03-16T05:47:50.914Z,91.31
2023-03-16T05:50:17.605Z,91.61
2023-03-16T05:52:45.424Z,91.86
2023-03-16T05:55:14.574Z,91.50
2023-03-16T05:57:42.056Z,91.69
2023-03-16T06:00:15.647Z,91.98
2023-03-16T06:02:43.233Z,91.85
2023-03-16T06:05:11.223Z,92.03
2023-03-16T06:07:37.850Z,91.73
2023-03-16T06:10:05.313Z,92.55
2023-03-16T06:12:32.517Z,92.78
2023-03-16T06:14:59.039Z,91.92
2023-03-16T06:17:25.623Z,91.97
2023-03-16T06:19:52.120Z,92.71
2023-03-16T06:22:18.796Z,91.67
2023-03-16T06:24:45.294Z,92.70
2023-03-16T06:27:12.395Z,91.91
2023-03-16T06:29:38.858Z,92.11
2023-03-16T06:32:05.484Z,92.66
2023-03-16T06:34:38.337Z,92.71
2023-03-16T06:37:05.156Z,92.06
2023-03-16T06:39:31.767Z,92.32
2023-03-16T06:41:58.599Z,92.40
2023-03-16T06:44:25.194Z,92.27
2023-03-16T06:46:51.668Z,91.98
2023-03-16T06:49:18.181Z,92.07
2023-03-16T06:51:44.681Z,92.31
2023-03-16T06:54:11.773Z,92.66
2023-03-16T06:56:38.417Z,92.70
2023-03-16T06:59:04.857Z,92.34
2023-03-16T07:01:31.822Z,92.52
2023-03-16T07:03:58.478Z,92.32
2023-03-16T07:06:25.097Z,92.03
2023-03-16T07:08:51.593Z,91.98
2023-03-16T07:11:18.272Z,91.85
2023-03-16T07:13:44.849Z,90.48
2023-03-16T07:16:11.454Z,90.83
2023-03-16T07:18:39.810Z,90.68
2023-03-16T07:21:06.486Z,90.41
2023-03-16T07:23:32.993Z,90.97
2023-03-16T07:25:59.550Z,90.54
2023-03-16T07:28:27.940Z,90.26
2023-03-16T07:31:03.449Z,90.80
2023-03-16T07:33:34.754Z,90.95
2023-03-16T07:36:05.728Z,90.94
2023-03-16T07:38:33.596Z,90.50
2023-03-16T07:41:01.094Z,90.38
2023-03-16T07:43:27.722Z,91.04
2023-03-16T07:45:54.332Z,91.29
2023-03-16T07:48:20.926Z,90.82
2023-03-16T07:50:48.724Z,91.28
2023-03-16T07:53:17.965Z,91.28
2023-03-16T07:55:44.783Z,91.47
2023-03-16T07:58:12.319Z,91.46
2023-03-16T08:00:39.503Z,91.51
2023-03-16T08:03:06.985Z,90.81
2023-03-16T08:05:33.945Z,90.86
2023-03-16T08:08:04.009Z,90.92
2023-03-16T08:10:31.875Z,90.86
2023-03-16T08:13:04.673Z,90.78
2023-03-16T08:15:33.915Z,90.33
2023-03-16T08:18:04.381Z,90.28
2023-03-16T08:20:31.314Z,90.55
2023-03-16T08:22:57.915Z,89.94
2023-03-16T08:25:24.471Z,89.17
2023-03-16T08:27:51.135Z,89.81
2023-03-16T08:30:18.984Z,88.15
2023-03-16T08:32:45.538Z,88.18
2023-03-16T08:35:14.312Z,88.18
2023-03-16T08:37:42.044Z,88.26
2023-03-16T08:40:13.343Z,87.69
2023-03-16T08:42:40.381Z,87.88
2023-03-16T08:45:12.256Z,87.58
2023-03-16T08:47:40.489Z,87.78
2023-03-16T08:50:09.068Z,87.39
2023-03-16T08:52:36.739Z,86.98
2023-03-16T08:55:07.256Z,87.27
2023-03-16T08:57:34.119Z,87.23
2023-03-16T09:00:01.458Z,87.35
2023-03-16T09:02:28.076Z,86.41
2023-03-16T09:04:54.773Z,85.65
2023-03-16T09:07:21.954Z,85.15
2023-03-16T09:09:48.486Z,84.64
2023-03-16T09:12:15.225Z,84.54
2023-03-16T09:14:41.692Z,84.18
2023-03-16T09:17:08.102Z,84.50
2023-03-16T09:19:50.176Z,83.29
2023-03-16T09:22:19.679Z,83.26
2023-03-16T09:24:46.535Z,83.46
2023-03-16T09:27:13.082Z,83.96
2023-03-16T09:29:41.025Z,84.24
2023-03-16T09:32:08.615Z,83.63
2023-03-16T09:34:35.025Z,84.05
2023-03-16T09:37:01.545Z,83.98
2023-03-16T09:39:28.204Z,83.03
2023-03-16T09:42:14.854Z,83.19
2023-03-16T09:45:09.156Z,82.82
2023-03-16T09:47:38.584Z,82.49
2023-03-16T09:50:14.695Z,82.12
2023-03-16T09:52:57.618Z,82.19
2023-03-16T09:55:33.224Z,82.00
2023-03-16T09:58:01.300Z,81.18
2023-03-16T10:00:33.970Z,80.71
2023-03-16T10:03:22.212Z,80.65
2023-03-16T10:05:57.316Z,79.77
2023-03-16T10:08:28.565Z,78.61
2023-03-16T10:11:10.612Z,78.15
2023-03-16T10:13:46.608Z,76.95
2023-03-16T10:16:19.940Z,76.35
2023-03-16T10:18:49.378Z,75.54
2023-03-16T10:21:18.322Z,75.65
2023-03-16T10:23:47.047Z,73.94
2023-03-16T10:26:23.026Z,73.94
2023-03-16T10:28:49.602Z,73.86
2023-03-16T10:31:18.627Z,73.23
2023-03-16T10:33:45.641Z,72.53
2023-03-16T10:36:36.564Z,72.57
2023-03-16T10:39:07.363Z,71.57
2023-03-16T10:41:37.185Z,71.92
2023-03-16T10:44:10.169Z,71.13
2023-03-16T10:46:41.794Z,70.82
2023-03-16T10:49:39.460Z,70.24
2023-03-16T10:52:44.093Z,70.26
2023-03-16T10:55:24.723Z,69.80
2023-03-16T10:57:55.123Z,69.09
2023-03-16T11:00:26.595Z,69.67
2023-03-16T11:02:55.268Z,69.96
2023-03-16T11:05:32.344Z,69.40
2023-03-16T11:07:58.714Z,68.66
2023-03-16T11:10:25.546Z,68.89
2023-03-16T11:12:52.492Z,67.87
2023-03-16T11:15:29.393Z,68.31
2023-03-16T11:17:56.603Z,68.24
2023-03-16T11:20:33.526Z,66.10
2023-03-16T11:23:01.474Z,65.78
2023-03-16T11:25:43.216Z,65.70
2023-03-16T11:28:17.706Z,66.76
2023-03-16T11:30:59.156Z,65.95
2023-03-16T11:33:27.121Z,65.87
2023-03-16T11:36:28.068Z,65.71
2023-03-16T11:39:16.024Z,65.41
2023-03-16T11:41:51.792Z,65.79
2023-03-16T11:44:32.779Z,65.48
2023-03-16T11:47:07.986Z,64.97
2023-03-16T11:49:44.366Z,65.58
2023-03-16T11:52:28.985Z,64.25
2023-03-16T11:55:03.365Z,64.74
2023-03-16T11:58:01.189Z,64.80
2023-03-16T12:00:38.469Z,64.07
2023-03-16T12:03:25.762Z,63.63
2023-03-16T12:06:20.734Z,63.21
2023-03-16T12:09:33.869Z,63.28
2023-03-16T12:12:11.490Z,62.12
2023-03-16T12:14:44.155Z,61.81
2023-03-16T12:17:17.890Z,60.53
2023-03-16T12:20:04.147Z,61.22
2023-03-16T12:22:38.684Z,61.11
2023-03-16T12:25:16.209Z,60.62
2023-03-16T12:27:45.278Z,59.51
2023-03-16T12:30:36.244Z,58.90
2023-03-16T12:33:20.860Z,58.85
2023-03-16T12:36:30.674Z,58.83
2023-03-16T12:39:05.187Z,57.60
2023-03-16T12:41:49.019Z,57.64
2023-03-16T12:44:22.198Z,56.97
2023-03-16T12:47:09.591Z,56.04
2023-03-16T12:49:37.094Z,54.34
2023-03-16T12:52:11.459Z,55.21
2023-03-16T12:54:51.654Z,56.80
2023-03-16T12:57:19.615Z,56.57
2023-03-16T12:59:50.020Z,55.28
2023-03-16T13:02:26.825Z,56.60
2023-03-16T13:05:01.061Z,56.19
2023-03-16T13:07:31.123Z,55.44
2023-03-16T13:10:02.681Z,55.68
2023-03-16T13:12:37.140Z,54.08
2023-03-16T13:15:19.406Z,53.49
2023-03-16T13:17:48.110Z,53.28
2023-03-16T13:20:29.302Z,53.14
2023-03-16T13:23:18.558Z,54.03
2023-03-16T13:26:04.654Z,53.22
2023-03-16T13:28:35.292Z,52.94
2023-03-16T13:31:02.706Z,51.93
2023-03-16T13:33:37.315Z,51.31
2023-03-16T13:36:06.272Z,51.01
2023-03-16T13:38:32.783Z,50.87
2023-03-16T13:41:09.345Z,51.06
2023-03-16T13:43:39.547Z,50.86
2023-03-16T13:46:17.065Z,51.04
2023-03-16T13:48:44.011Z,50.54
2023-03-16T13:51:21.068Z,50.76
2023-03-16T13:53:49.367Z,51.15
2023-03-16T13:56:21.158Z,50.65
2023-03-16T13:58:51.609Z,51.19
2023-03-16T14:01:28.847Z,49.72
2023-03-16T14:03:58.359Z,50.11
2023-03-16T14:06:27.697Z,49.24
2023-03-16T14:09:01.186Z,48.91
2023-03-16T14:11:28.453Z,48.54
2023-03-16T14:13:57.491Z,48.87
2023-03-16T14:16:28.040Z,48.53
2023-03-16T14:19:16.955Z,48.93
2023-03-16T14:21:45.972Z,48.35
2023-03-16T14:24:30.759Z,48.63
2023-03-16T14:26:58.344Z,48.81
2023-03-16T14:29:30.589Z,48.55
2023-03-16T14:31:59.820Z,48.71
2023-03-16T14:34:35.148Z,48.81
2023-03-16T14:37:06.774Z,47.93
2023-03-16T14:39:33.820Z,48.78
2023-03-16T14:42:04.809Z,48.42
2023-03-16T14:44:35.400Z,48.63
2023-03-16T14:47:04.987Z,47.95
2023-03-16T14:49:35.002Z,48.36
2023-03-16T14:52:08.274Z,48.21
2023-03-16T14:54:34.837Z,48.65
2023-03-16T14:57:05.372Z,48.58
2023-03-16T14:59:32.988Z,48.30
2023-03-16T15:02:01.202Z,47.98
2023-03-16T15:04:33.554Z,48.47
2023-03-16T15:07:01.634Z,48.04
2023-03-16T15:09:39.973Z,48.54
2023-03-16T15:12:18.115Z,50.06
2023-03-16T15:15:03.580Z,49.46
2023-03-16T15:17:30.418Z,48.76
2023-03-16T15:19:57.015Z,49.34
2023-03-16T15:22:28.658Z,48.71
2023-03-16T15:24:57.551Z,48.67
2023-03-16T15:27:27.904Z,49.15
2023-03-16T15:29:54.601Z,48.14
2023-03-16T15:32:21.123Z,48.05
2023-03-16T15:34:47.840Z,47.77
2023-03-16T15:37:16.114Z,48.67
2023-03-16T15:39:43.625Z,48.32
2023-03-16T15:42:16.006Z,47.80
2023-03-16T15:44:42.960Z,48.43
2023-03-16T15:47:09.569Z,48.65
2023-03-16T15:49:46.724Z,48.77
2023-03-16T15:52:31.995Z,47.75
2023-03-16T15:55:03.396Z,48.27
2023-03-16T15:57:31.539Z,48.24
2023-03-16T15:59:59.278Z,48.06
2023-03-16T16:02:31.930Z,48.12
2023-03-16T16:04:59.593Z,47.60
2023-03-16T16:07:27.152Z,47.70
2023-03-16T16:09:54.013Z,47.37
2023-03-16T16:12:26.689Z,48.03
2023-03-16T16:14:54.051Z,48.78
2023-03-16T16:17:36.426Z,48.94
2023-03-16T16:20:23.827Z,49.01
2023-03-16T16:22:51.982Z,49.08
2023-03-16T16:25:20.527Z,49.66
2023-03-16T16:27:47.357Z,50.48
2023-03-16T16:30:26.198Z,50.54
2023-03-16T16:32:53.530Z,50.85
2023-03-16T16:35:22.611Z,50.87
2023-03-16T16:37:50.065Z,51.11
2023-03-16T16:40:25.727Z,51.16
2023-03-16T16:42:53.812Z,51.05
2023-03-16T16:45:23.294Z,51.58
2023-03-16T16:47:52.269Z,51.75
2023-03-16T16:50:21.502Z,51.92
2023-03-16T16:52:49.798Z,52.65
2023-03-16T16:55:16.502Z,53.29
2023-03-16T16:57:43.957Z,52.73
2023-03-16T17:00:18.494Z,53.02
2023-03-16T17:02:53.629Z,53.16
2023-03-16T17:05:25.732Z,53.71
2023-03-16T17:07:53.602Z,53.91
2023-03-16T17:10:23.671Z,54.08
2023-03-16T17:12:52.110Z,54.98
2023-03-16T17:15:32.914Z,55.65
2023-03-16T17:18:03.699Z,56.73
2023-03-16T17:20:31.126Z,56.61
2023-03-16T17:22:58.771Z,57.13
2023-03-16T17:25:26.338Z,57.48
2023-03-16T17:27:56.412Z,57.62
2023-03-16T17:30:32.212Z,57.76
2023-03-16T17:33:13.787Z,57.50
2023-03-16T17:35:41.545Z,57.61
2023-03-16T17:38:20.433Z,57.70
2023-03-16T17:40:47.370Z,58.29
2023-03-16T17:43:16.333Z,58.09
2023-03-16T17:45:44.614Z,58.16
2023-03-16T17:48:14.572Z,58.96
2023-03-16T17:50:41.511Z,58.98
2023-03-16T17:53:08.174Z,59.50
2023-03-16T17:55:35.056Z,59.82
2023-03-16T17:58:02.192Z,60.60
2023-03-16T18:00:35.777Z,61.01
2023-03-16T18:03:13.785Z,60.75
2023-03-16T18:05:41.190Z,61.50
2023-03-16T18:08:16.191Z,62.18
2023-03-16T18:10:45.467Z,62.58
2023-03-16T18:13:24.748Z,62.77
2023-03-16T18:15:51.930Z,62.53
2023-03-16T18:18:22.286Z,62.55
2023-03-16T18:20:54.978Z,63.57
2023-03-16T18:23:23.997Z,63.55
2023-03-16T18:25:52.656Z,63.96
2023-03-16T18:28:20.518Z,64.34
2023-03-16T18:30:51.983Z,64.35
2023-03-16T18:33:43.866Z,64.00
2023-03-16T18:36:17.752Z,64.40
2023-03-16T18:38:47.284Z,65.01
2023-03-16T18:41:19.853Z,65.93
2023-03-16T18:43:47.350Z,65.77
2023-03-16T18:46:32.491Z,65.75
2023-03-16T18:49:02.184Z,66.10
2023-03-16T18:51:29.687Z,67.00
2023-03-16T18:53:56.655Z,67.08
2023-03-16T18:56:28.442Z,67.24
2023-03-16T18:58:56.412Z,68.16
2023-03-16T19:01:29.630Z,68.77
2023-03-16T19:03:57.862Z,68.71
2023-03-16T19:06:33.713Z,68.61
2023-03-16T19:09:10.898Z,69.93
2023-03-16T19:11:42.654Z,69.06
2023-03-16T19:14:17.651Z,70.04
2023-03-16T19:16:45.273Z,70.23
2023-03-16T19:19:12.410Z,70.48
2023-03-16T19:21:39.740Z,70.41
2023-03-16T19:24:08.293Z,70.13
2023-03-16T19:26:37.540Z,70.23
2023-03-16T19:29:05.968Z,71.11
2023-03-16T19:31:33.505Z,71.11
2023-03-16T19:34:00.272Z,71.39
2023-03-16T19:36:33.882Z,71.34
2023-03-16T19:39:00.752Z,71.48
2023-03-16T19:41:37.079Z,71.47
2023-03-16T19:44:25.372Z,71.37
2023-03-16T19:46:52.318Z,71.92
2023-03-16T19:49:27.082Z,71.97
2023-03-16T19:51:55.267Z,72.06
2023-03-16T19:54:23.053Z,71.74
2023-03-16T19:56:50.507Z,72.11
2023-03-16T19:59:17.513Z,72.06
2023-03-16T20:01:44.744Z,72.47
2023-03-16T20:04:23.479Z,72.61
2023-03-16T20:06:50.925Z,72.51
2023-03-16T20:09:18.309Z,72.53
2023-03-16T20:11:45.936Z,72.45
2023-03-16T20:14:30.712Z,72.47
2023-03-16T20:16:57.774Z,72.76
2023-03-16T20:19:24.590Z,72.70
2023-03-16T20:21:51.925Z,72.57
2023-03-16T20:24:20.866Z,72.59
2023-03-16T20:26:51.318Z,72.75
2023-03-16T20:29:29.202Z,72.69
2023-03-16T20:31:56.082Z,72.69
2023-03-16T20:34:26.517Z,72.21
2023-03-16T20:36:53.408Z,72.08
2023-03-16T20:39:19.942Z,72.10
2023-03-16T20:41:46.549Z,71.62
2023-03-16T20:44:18.098Z,71.97
2023-03-16T20:46:45.170Z,71.96
2023-03-16T20:49:28.687Z,72.11
2023-03-16T20:51:55.453Z,71.69
2023-03-16T20:54:21.893Z,71.04
2023-03-16T20:56:49.131Z,71.09
2023-03-16T20:59:31.548Z,71.09
2023-03-16T21:01:58.448Z,71.21
2023-03-16T21:04:27.911Z,71.18
2023-03-16T21:06:55.858Z,70.83
2023-03-16T21:09:22.629Z,71.23
2023-03-16T21:11:49.574Z,71.16
2023-03-16T21:14:23.958Z,71.43
2023-03-16T21:16:51.457Z,70.71
2023-03-16T21:19:21.514Z,71.24
2023-03-16T21:21:48.868Z,71.03
2023-03-16T21:24:15.402Z,70.70
2023-03-16T21:26:42.830Z,71.33
2023-03-16T21:29:23.701Z,71.50
2023-03-16T21:31:50.309Z,71.84
2023-03-16T21:34:24.173Z,72.09
2023-03-16T21:36:50.866Z,72.36
2023-03-16T21:39:23.660Z,72.47
2023-03-16T21:41:50.747Z,73.07
2023-03-16T21:44:17.372Z,73.90
2023-03-16T21:46:44.580Z,73.51
2023-03-16T21:49:12.094Z,73.75
2023-03-16T21:51:42.831Z,73.78
2023-03-16T21:54:13.552Z,74.14
2023-03-16T21:56:41.887Z,73.70
2023-03-16T21:59:08.640Z,73.99
2023-03-16T22:01:44.858Z,73.95
2023-03-16T22:04:17.779Z,73.97
2023-03-16T22:06:45.890Z,74.72
2023-03-16T22:09:21.002Z,74.31
2023-03-16T22:11:47.485Z,74.02
2023-03-16T22:14:13.986Z,74.65
2023-03-16T22:16:41.256Z,74.81
2023-03-16T22:19:13.460Z,74.83
2023-03-16T22:21:42.628Z,74.60
2023-03-16T22:24:30.331Z,74.75
2023-03-16T22:26:57.941Z,74.44
2023-03-16T22:29:28.215Z,74.36
2023-03-16T22:32:03.029Z,74.10
2023-03-16T22:34:43.755Z,74.87
2023-03-16T22:37:13.193Z,74.24
2023-03-16T22:39:40.590Z,73.84
2023-03-16T22:42:19.187Z,73.84
2023-03-16T22:44:45.762Z,74.24
2023-03-16T22:47:24.117Z,73.93
2023-03-16T22:49:50.672Z,74.07
2023-03-16T22:52:17.860Z,73.97
2023-03-16T22:54:46.368Z,73.81
2023-03-16T22:57:15.508Z,74.01
2023-03-16T22:59:43.393Z,74.11
2023-03-16T23:02:19.067Z,74.19
2023-03-16T23:04:45.764Z,73.96
2023-03-16T23:07:16.766Z,73.85
2023-03-16T23:09:43.146Z,74.35
2023-03-16T23:12:15.444Z,73.87
2023-03-16T23:14:42.253Z,74.00
2023-03-16T23:17:26.976Z,73.75
2023-03-16T23:19:54.200Z,74.02
2023-03-16T23:22:20.610Z,73.30
2023-03-16T23:24:47.302Z,73.42
2023-03-16T23:27:21.339Z,73.92
2023-03-16T23:29:48.493Z,74.34
2023-03-16T23:32:17.108Z,73.78
2023-03-16T23:34:43.762Z,73.87
2023-03-16T23:37:10.293Z,74.13
2023-03-16T23:39:36.915Z,74.23
2023-03-16T23:42:04.126Z,73.55
2023-03-16T23:44:31.196Z,73.66
2023-03-16T23:46:59.805Z,73.87
2023-03-16T23:49:31.127Z,74.41
2023-03-16T23:52:02.751Z,74.24
2023-03-16T23:54:31.797Z,73.79
2023-03-16T23:56:58.732Z,74.22
2023-03-16T23:59:26.567Z,73.97
